Time;durP1;ratioP1;P1;durP2;ratioP2;P2;SDS_P1;SDS_P2;PMS_P1;PMS_P2;Temp;Humidity;BMP_temperature;BMP_pressure;BME280_temperature;BME280_humidity;BME280_pressure;Samples;Min_cycle;Max_cycle;Signal;HPM_P1;HPM_P2
2023/06/24 00:01:34;;;;;;;8.38;5.07;;;;;;;16.11;100.00;101497.44;5174535;28;20399;-73
2023/06/24 00:04:04;;;;;;;8.30;5.00;;;;;;;16.05;100.00;101502.13;5175642;28;20029;-72
2023/06/24 00:06:36;;;;;;;10.25;4.78;;;;;;;15.95;100.00;101499.03;5178113;28;20045;-72
2023/06/24 00:09:07;;;;;;;8.15;5.13;;;;;;;15.88;100.00;101505.47;5169617;28;20069;-72
2023/06/24 00:11:38;;;;;;;7.93;4.97;;;;;;;15.81;100.00;101496.13;5168125;28;20449;-72
2023/06/24 00:14:08;;;;;;;13.07;5.18;;;;;;;15.79;100.00;101487.44;5177835;28;20041;-71
2023/06/24 00:16:38;;;;;;;9.05;5.32;;;;;;;15.71;100.00;101497.41;5171121;28;20395;-71
2023/06/24 00:19:08;;;;;;;8.68;5.15;;;;;;;15.76;100.00;101487.56;5174970;28;20563;-71
2023/06/24 00:21:39;;;;;;;7.45;5.18;;;;;;;15.69;100.00;101501.06;5174185;28;20019;-71
2023/06/24 00:24:10;;;;;;;8.20;5.10;;;;;;;15.59;100.00;101507.63;5168460;28;20083;-71
2023/06/24 00:26:40;;;;;;;10.55;4.80;;;;;;;15.47;100.00;101516.88;5162558;28;20041;-71
2023/06/24 00:29:10;;;;;;;9.80;5.32;;;;;;;15.39;100.00;101507.56;5172117;28;20034;-71
2023/06/24 00:31:41;;;;;;;8.27;5.50;;;;;;;15.33;100.00;101511.31;5171274;28;20022;-73
2023/06/24 00:34:11;;;;;;;7.97;4.63;;;;;;;15.12;100.00;101512.13;5172317;28;20373;-71
2023/06/24 00:36:43;;;;;;;7.97;4.55;;;;;;;15.13;100.00;101511.22;5156151;28;20117;-72
2023/06/24 00:39:14;;;;;;;10.38;5.53;;;;;;;15.03;100.00;101520.38;5164668;28;20037;-71
2023/06/24 00:41:44;;;;;;;6.95;4.53;;;;;;;14.98;100.00;101518.84;5173756;28;20034;-71
2023/06/24 00:44:15;;;;;;;11.40;4.60;;;;;;;14.96;100.00;101523.28;5178128;28;20083;-71
2023/06/24 00:46:45;;;;;;;10.70;4.40;;;;;;;14.80;100.00;101529.22;5163936;28;20029;-73
2023/06/24 00:49:15;;;;;;;6.03;3.72;;;;;;;14.81;100.00;101531.81;5173021;28;20026;-72
2023/06/24 00:51:50;;;;;;;9.13;4.53;;;;;;;14.68;100.00;101532.28;5170401;28;20129;-72
2023/06/24 00:54:21;;;;;;;6.38;4.18;;;;;;;14.66;100.00;101532.38;5164411;23;20046;-76
2023/06/24 00:56:54;;;;;;;10.68;4.07;;;;;;;14.49;100.00;101529.50;5147815;28;20034;-75
2023/06/24 00:59:28;;;;;;;10.65;4.40;;;;;;;14.57;100.00;101531.84;5140985;28;20651;-76
2023/06/24 01:02:04;;;;;;;7.00;4.07;;;;;;;14.36;100.00;101525.59;5156129;28;20330;-76
2023/06/24 01:04:34;;;;;;;8.73;5.07;;;;;;;14.47;100.00;101522.56;5149171;28;20560;-76
2023/06/24 01:07:05;;;;;;;6.95;4.45;;;;;;;14.42;100.00;101524.50;5154334;28;20032;-76
2023/06/24 01:09:36;;;;;;;12.40;4.80;;;;;;;14.42;100.00;101529.78;5159328;28;20439;-76
2023/06/24 01:12:07;;;;;;;8.98;4.75;;;;;;;14.43;100.00;101528.84;5152869;28;20034;-76
2023/06/24 01:14:37;;;;;;;10.20;4.78;;;;;;;14.51;100.00;101539.94;5138803;28;20065;-76
2023/06/24 01:17:28;;;;;;;7.25;4.68;;;;;;;14.52;100.00;101550.44;5156999;28;20125;-76
2023/06/24 01:20:11;;;;;;;6.85;4.38;;;;;;;14.52;100.00;101547.78;5153246;28;20559;-75
2023/06/24 01:22:46;;;;;;;9.32;4.70;;;;;;;14.44;100.00;101543.72;5154758;28;20030;-76
2023/06/24 01:25:35;;;;;;;11.32;4.70;;;;;;;14.39;100.00;101545.66;5128369;28;20049;-77
2023/06/24 01:28:43;;;;;;;10.10;5.20;;;;;;;14.36;100.00;101540.50;5132848;28;20500;-76
2023/06/24 01:31:50;;;;;;;8.95;4.70;;;;;;;14.46;100.00;101540.09;5156545;28;20034;-75
2023/06/24 01:34:23;;;;;;;9.00;4.97;;;;;;;14.43;100.00;101542.00;5151704;28;20077;-76
2023/06/24 01:37:08;;;;;;;11.77;4.93;;;;;;;14.43;100.00;101540.22;5148139;28;20030;-75
2023/06/24 01:39:47;;;;;;;8.75;5.47;;;;;;;14.41;100.00;101538.56;5151788;28;20026;-76
2023/06/24 01:42:21;;;;;;;8.63;5.03;;;;;;;14.44;100.00;101539.31;5152662;28;20518;-76
2023/06/24 01:44:53;;;;;;;8.25;5.68;;;;;;;14.43;100.00;101537.59;5130911;28;20042;-75
2023/06/24 01:47:26;;;;;;;8.18;4.93;;;;;;;14.40;100.00;101539.50;5153739;28;20030;-76
2023/06/24 01:50:00;;;;;;;8.82;5.38;;;;;;;14.32;100.00;101541.53;5152929;28;20041;-76
2023/06/24 01:52:32;;;;;;;5.68;3.70;;;;;;;14.39;100.00;101537.78;5148124;28;20051;-77
2023/06/24 01:55:08;;;;;;;10.75;4.93;;;;;;;14.24;100.00;101548.84;5153245;28;20086;-75
2023/06/24 01:57:40;;;;;;;5.97;3.92;;;;;;;14.21;100.00;101547.16;5152487;28;20026;-77
2023/06/24 02:00:12;;;;;;;8.05;4.10;;;;;;;14.31;100.00;101547.69;5152275;28;20335;-76
2023/06/24 02:02:43;;;;;;;9.07;4.22;;;;;;;14.25;100.00;101547.91;5153581;28;20105;-77
2023/06/24 02:05:17;;;;;;;7.88;4.10;;;;;;;14.21;100.00;101546.28;5138460;28;20033;-76
2023/06/24 02:07:49;;;;;;;8.82;4.68;;;;;;;14.15;100.00;101541.22;5153864;28;20034;-76
2023/06/24 02:10:21;;;;;;;7.05;4.18;;;;;;;14.16;100.00;101537.72;5147442;28;20151;-77
2023/06/24 02:12:53;;;;;;;8.50;4.30;;;;;;;14.12;100.00;101536.06;5140913;28;20030;-76
2023/06/24 02:15:26;;;;;;;9.93;4.53;;;;;;;13.98;100.00;101543.56;5159184;28;20511;-77
2023/06/24 02:17:57;;;;;;;7.75;4.47;;;;;;;14.00;100.00;101541.75;5153797;28;20388;-76
2023/06/24 02:20:30;;;;;;;6.72;4.03;;;;;;;13.86;100.00;101539.59;5157357;28;20053;-76
2023/06/24 02:23:01;;;;;;;10.15;4.13;;;;;;;13.92;100.00;101541.16;5140246;28;20129;-74
2023/06/24 02:25:32;;;;;;;8.88;4.53;;;;;;;13.90;100.00;101529.84;5157853;28;20141;-77
2023/06/24 02:28:03;;;;;;;9.00;4.65;;;;;;;13.91;100.00;101523.66;5154879;28;20121;-76
2023/06/24 02:30:35;;;;;;;10.85;5.20;;;;;;;13.80;100.00;101528.41;5140234;28;20563;-76
2023/06/24 02:33:06;;;;;;;7.20;4.50;;;;;;;13.74;100.00;101524.22;5160877;28;20026;-76
2023/06/24 02:35:37;;;;;;;8.38;4.32;;;;;;;13.69;100.00;101523.53;5162467;28;20042;-77
2023/06/24 02:38:08;;;;;;;9.43;4.30;;;;;;;13.77;100.00;101523.28;5158571;28;20045;-76
2023/06/24 02:40:39;;;;;;;9.05;4.50;;;;;;;13.96;100.00;101524.38;5143065;28;20217;-76
2023/06/24 02:43:09;;;;;;;6.97;4.10;;;;;;;13.88;100.00;101529.88;5152599;28;20025;-76
2023/06/24 02:45:40;;;;;;;7.95;4.43;;;;;;;13.83;100.00;101529.19;5158683;28;20095;-76
2023/06/24 02:48:12;;;;;;;9.55;5.85;;;;;;;13.83;100.00;101529.19;5158518;28;20070;-76
2023/06/24 02:50:44;;;;;;;9.60;4.75;;;;;;;13.85;100.00;101526.47;5161506;28;20488;-76
2023/06/24 02:53:15;;;;;;;9.07;5.35;;;;;;;13.87;100.00;101522.03;5157786;28;20102;-75
2023/06/24 02:55:46;;;;;;;8.63;5.32;;;;;;;13.82;100.00;101526.59;5162299;28;20042;-76
2023/06/24 02:58:17;;;;;;;10.95;5.40;;;;;;;13.84;100.00;101523.00;5138345;28;20604;-77
2023/06/24 03:00:49;;;;;;;10.75;5.50;;;;;;;13.77;100.00;101534.63;5159112;28;20049;-76
2023/06/24 03:03:20;;;;;;;9.65;4.22;;;;;;;13.73;100.00;101525.13;5155220;28;20523;-76
2023/06/24 03:05:53;;;;;;;6.25;3.88;;;;;;;13.64;100.00;101533.34;5159152;28;20030;-76
2023/06/24 03:08:24;;;;;;;6.25;3.28;;;;;;;13.52;100.00;101532.84;5159272;28;20037;-76
2023/06/24 03:10:56;;;;;;;5.28;3.17;;;;;;;13.50;100.00;101540.78;5141098;28;20030;-76
2023/06/24 03:13:26;;;;;;;5.65;2.65;;;;;;;13.42;100.00;101544.56;5152973;28;20023;-75
2023/06/24 03:15:56;;;;;;;4.00;2.88;;;;;;;13.46;100.00;101549.69;5160147;28;20134;-76
2023/06/24 03:18:27;;;;;;;4.10;2.60;;;;;;;13.54;100.00;101541.56;5141270;28;20555;-76
2023/06/24 03:20:57;;;;;;;4.65;2.92;;;;;;;13.50;100.00;101550.44;5165265;28;20061;-76
2023/06/24 03:23:27;;;;;;;4.05;2.60;;;;;;;13.43;100.00;101544.50;5160452;28;20133;-77
2023/06/24 03:25:57;;;;;;;6.25;2.78;;;;;;;13.57;100.00;101544.94;5163321;28;20026;-76
2023/06/24 03:28:31;;;;;;;3.97;2.78;;;;;;;13.72;100.00;101540.97;5158416;28;20023;-76
2023/06/24 03:31:01;;;;;;;5.43;3.08;;;;;;;13.82;100.00;101547.63;5154848;28;20037;-76
2023/06/24 03:33:32;;;;;;;8.30;3.63;;;;;;;13.75;100.00;101546.97;5158547;28;20090;-76
2023/06/24 03:36:02;;;;;;;6.93;4.15;;;;;;;13.66;100.00;101546.41;5162133;28;20415;-76
2023/06/24 03:38:33;;;;;;;5.40;3.60;;;;;;;13.77;100.00;101552.19;5158389;28;20026;-76
2023/06/24 03:41:03;;;;;;;3.88;2.70;;;;;;;13.75;100.00;101556.63;5159780;28;20330;-76
2023/06/24 03:43:33;;;;;;;4.07;2.63;;;;;;;13.56;100.00;101560.75;5157941;28;20091;-77
2023/06/24 03:46:04;;;;;;;3.53;2.40;;;;;;;13.67;100.00;101559.50;5144965;28;20030;-76
2023/06/24 03:48:35;;;;;;;4.40;2.88;;;;;;;13.84;100.00;101562.44;5160675;28;20102;-76
2023/06/24 03:51:05;;;;;;;6.00;3.05;;;;;;;13.80;100.00;101559.94;5161444;28;20052;-77
2023/06/24 03:53:36;;;;;;;5.13;3.22;;;;;;;13.86;100.00;101559.72;5156732;28;20738;-76
2023/06/24 03:56:06;;;;;;;4.75;3.20;;;;;;;13.98;100.00;101573.34;5161421;28;20089;-77
2023/06/24 03:58:36;;;;;;;7.03;3.85;;;;;;;14.02;100.00;101568.81;5157376;28;20030;-76
2023/06/24 04:01:07;;;;;;;5.18;3.78;;;;;;;14.14;100.00;101576.31;5161040;28;20153;-76
2023/06/24 04:03:37;;;;;;;9.82;3.95;;;;;;;14.29;100.00;101570.56;5158004;28;20432;-77
2023/06/24 04:06:07;;;;;;;6.50;3.85;;;;;;;14.37;100.00;101571.13;5144011;28;20038;-76
2023/06/24 04:08:39;;;;;;;6.32;3.97;;;;;;;14.33;100.00;101566.91;5161316;28;20030;-76
2023/06/24 04:11:09;;;;;;;7.13;4.40;;;;;;;14.31;100.00;101563.47;5159061;28;20022;-76
2023/06/24 04:13:40;;;;;;;7.00;4.13;;;;;;;14.52;100.00;101562.72;5157047;28;20285;-76
2023/06/24 04:16:10;;;;;;;8.25;4.40;;;;;;;14.73;100.00;101567.22;5160227;28;20047;-76
2023/06/24 04:18:40;;;;;;;12.05;5.25;;;;;;;14.73;100.00;101562.78;5141558;28;20344;-76
2023/06/24 04:21:11;;;;;;;8.48;5.13;;;;;;;14.92;100.00;101566.47;5160373;28;20054;-76
2023/06/24 04:23:41;;;;;;;8.10;4.60;;;;;;;14.99;100.00;101570.59;5158223;28;20026;-76
2023/06/24 04:26:11;;;;;;;11.02;5.90;;;;;;;14.91;100.00;101565.63;5160879;28;20018;-74
2023/06/24 04:28:42;;;;;;;13.05;5.03;;;;;;;15.13;100.00;101563.88;5157717;28;20028;-75
2023/06/24 04:31:12;;;;;;;10.52;6.50;;;;;;;15.22;100.00;101579.31;5159842;28;20034;-75
2023/06/24 04:33:42;;;;;;;11.80;6.00;;;;;;;15.43;100.00;101565.34;5157901;28;20124;-76
2023/06/24 04:36:13;;;;;;;10.73;5.88;;;;;;;15.67;100.00;101569.63;5158097;28;20575;-74
2023/06/24 04:38:43;;;;;;;9.13;5.75;;;;;;;15.81;100.00;101574.34;5160728;28;20393;-76
2023/06/24 04:41:13;;;;;;;10.05;5.75;;;;;;;16.32;100.00;101565.09;5161762;28;20022;-74
2023/06/24 04:43:44;;;;;;;10.70;5.47;;;;;;;16.36;100.00;101569.34;5158376;28;20255;-74
2023/06/24 04:46:14;;;;;;;8.00;5.00;;;;;;;17.43;100.00;101570.56;5159823;28;20034;-75
2023/06/24 04:48:44;;;;;;;10.25;4.50;;;;;;;18.91;100.00;101571.69;5160584;28;20034;-77
2023/06/24 04:51:15;;;;;;;7.35;4.45;;;;;;;20.29;97.08;101563.75;5158905;28;20082;-75
2023/06/24 04:53:45;;;;;;;7.05;3.70;;;;;;;21.82;84.62;101561.94;5157386;28;20055;-77
2023/06/24 04:56:15;;;;;;;7.60;4.10;;;;;;;21.48;84.99;101570.41;5154624;28;20033;-76
2023/06/24 04:58:45;;;;;;;6.10;3.23;;;;;;;23.97;75.69;101567.81;5158622;28;20515;-77
2023/06/24 05:01:17;;;;;;;5.33;3.30;;;;;;;24.35;74.13;101556.88;5160417;28;20305;-74
2023/06/24 05:03:47;;;;;;;8.82;3.28;;;;;;;24.36;74.29;101564.75;5158391;28;20841;-75
2023/06/24 05:06:18;;;;;;;7.07;2.97;;;;;;;24.21;75.10;101565.94;5143756;28;20061;-76
2023/06/24 05:08:48;;;;;;;5.10;2.78;;;;;;;24.54;71.58;101558.03;5139228;28;20037;-74
2023/06/24 05:11:18;;;;;;;6.40;3.03;;;;;;;24.86;69.72;101570.59;5157768;28;20034;-75
2023/06/24 05:13:49;;;;;;;4.72;2.78;;;;;;;24.61;72.14;101569.97;5141334;28;20026;-74
2023/06/24 05:16:19;;;;;;;7.15;3.40;;;;;;;25.64;68.64;101572.22;5158589;28;20050;-74
2023/06/24 05:18:50;;;;;;;4.20;2.35;;;;;;;26.19;70.58;101581.94;5159826;28;20026;-74
2023/06/24 05:21:21;;;;;;;4.93;2.55;;;;;;;25.74;69.14;101580.34;5159264;28;20125;-75
2023/06/24 05:23:51;;;;;;;4.77;3.00;;;;;;;25.31;71.39;101585.69;5157560;28;20105;-76
2023/06/24 05:26:21;;;;;;;7.60;2.75;;;;;;;25.33;68.68;101581.06;5156777;28;20289;-75
2023/06/24 05:28:52;;;;;;;6.07;2.70;;;;;;;25.78;70.59;101569.28;5139141;28;20079;-73
2023/06/24 05:31:22;;;;;;;5.60;2.50;;;;;;;25.17;72.20;101571.69;5159369;28;20034;-73
2023/06/24 05:33:52;;;;;;;5.40;2.75;;;;;;;25.18;71.84;101570.72;5156304;28;20063;-74
2023/06/24 05:36:23;;;;;;;4.80;2.70;;;;;;;24.10;77.17;101576.59;5124263;28;20026;-74
2023/06/24 05:38:54;;;;;;;4.95;2.50;;;;;;;25.52;71.65;101569.72;5136910;28;20285;-74
2023/06/24 05:41:24;;;;;;;4.18;2.60;;;;;;;25.37;73.21;101576.31;5155161;28;20026;-74
2023/06/24 05:44:11;;;;;;;6.18;3.25;;;;;;;24.37;76.04;101574.47;5153624;28;20054;-72
2023/06/24 05:46:41;;;;;;;6.32;2.80;;;;;;;24.16;72.82;101584.16;5136482;28;20031;-72
2023/06/24 05:49:12;;;;;;;5.20;3.60;;;;;;;23.14;80.31;101577.56;5137147;28;20500;-72
2023/06/24 05:51:42;;;;;;;7.40;3.55;;;;;;;23.29;79.17;101573.81;5152197;28;20030;-74
2023/06/24 05:54:13;;;;;;;9.77;3.50;;;;;;;22.44;83.42;101585.25;5148950;28;20231;-74
2023/06/24 05:56:43;;;;;;;8.43;3.50;;;;;;;22.46;82.40;101586.00;5146739;28;20026;-72
2023/06/24 05:59:13;;;;;;;6.72;3.58;;;;;;;22.29;84.98;101579.09;5144107;28;20019;-72
2023/06/24 06:01:44;;;;;;;7.65;3.67;;;;;;;21.97;84.72;101585.78;5144134;28;20023;-72
2023/06/24 06:04:14;;;;;;;7.63;3.83;;;;;;;22.04;89.43;101594.19;5137365;28;20034;-72
2023/06/24 06:06:44;;;;;;;5.10;3.70;;;;;;;22.04;91.08;101592.38;5142438;28;20061;-72
2023/06/24 06:09:14;;;;;;;5.38;3.45;;;;;;;22.46;88.83;101589.50;5142673;28;20042;-72
2023/06/24 06:11:45;;;;;;;7.57;3.53;;;;;;;22.31;87.74;101592.34;5138905;28;20018;-72
2023/06/24 06:14:15;;;;;;;9.05;3.90;;;;;;;22.18;86.56;101597.66;5142759;28;20121;-72
2023/06/24 06:16:45;;;;;;;6.65;3.60;;;;;;;22.59;88.08;101602.88;5141619;28;20412;-71
2023/06/24 06:19:16;;;;;;;7.70;4.38;;;;;;;22.25;88.41;101609.59;5142697;28;20621;-71
2023/06/24 06:21:46;;;;;;;9.18;4.57;;;;;;;21.90;88.63;101608.41;5149544;28;20035;-71
2023/06/24 06:24:17;;;;;;;7.03;3.70;;;;;;;22.87;87.37;101614.16;5151478;28;20053;-71
2023/06/24 06:26:47;;;;;;;6.25;3.78;;;;;;;23.13;85.51;101611.41;5127773;28;20031;-73
2023/06/24 06:29:17;;;;;;;7.10;3.28;;;;;;;23.28;87.75;101609.44;5134070;28;20116;-73
2023/06/24 06:31:47;;;;;;;7.53;3.92;;;;;;;23.35;84.50;101600.06;5133012;28;20023;-70
2023/06/24 06:34:18;;;;;;;5.90;3.85;;;;;;;23.12;86.18;101601.69;5151105;28;20030;-71
2023/06/24 06:36:49;;;;;;;7.43;3.92;;;;;;;23.22;84.45;101596.56;5148375;28;20448;-69
2023/06/24 06:39:19;;;;;;;8.10;4.30;;;;;;;22.85;85.56;101592.94;5151871;28;20469;-71
2023/06/24 06:41:49;;;;;;;7.57;3.95;;;;;;;22.95;86.09;101596.69;5149952;28;20026;-71
2023/06/24 06:44:19;;;;;;;7.22;4.20;;;;;;;22.83;84.52;101586.84;5152751;28;20041;-71
2023/06/24 06:46:50;;;;;;;5.70;3.80;;;;;;;22.61;85.20;101590.28;5150012;28;20030;-69
2023/06/24 06:49:20;;;;;;;7.65;4.20;;;;;;;22.49;88.00;101577.78;5153330;28;20719;-70
2023/06/24 06:51:54;;;;;;;7.20;3.90;;;;;;;22.55;84.46;101583.56;5129017;28;20113;-71
2023/06/24 06:54:24;;;;;;;7.45;3.83;;;;;;;22.30;87.69;101580.84;5174924;23;20419;-72
2023/06/24 06:56:55;;;;;;;5.73;3.70;;;;;;;23.98;83.63;101582.00;5160175;28;20041;-71
2023/06/24 06:59:25;;;;;;;6.50;3.50;;;;;;;24.74;79.51;101571.56;5153523;28;20281;-71
2023/06/24 07:01:56;;;;;;;8.47;3.80;;;;;;;25.23;77.05;101579.25;5171627;28;20487;-72
2023/06/24 07:04:26;;;;;;;5.20;3.10;;;;;;;24.39;81.07;101580.56;5166039;28;20296;-70
2023/06/24 07:06:56;;;;;;;8.93;2.92;;;;;;;25.00;76.78;101582.88;5151552;28;20080;-72
2023/06/24 07:09:27;;;;;;;5.70;2.90;;;;;;;25.48;75.88;101573.63;5176354;28;20041;-69
2023/06/24 07:11:57;;;;;;;6.25;2.85;;;;;;;24.48;77.12;101585.22;5172256;28;20293;-72
2023/06/24 07:14:27;;;;;;;4.93;2.83;;;;;;;24.44;76.74;101583.75;5173606;28;20104;-69
2023/06/24 07:16:58;;;;;;;5.03;2.50;;;;;;;25.55;75.05;101589.06;5174344;28;20674;-70
2023/06/24 07:19:28;;;;;;;6.40;2.70;;;;;;;26.16;71.96;101587.56;5175051;28;20029;-69
2023/06/24 07:21:58;;;;;;;5.20;2.60;;;;;;;26.34;74.56;101580.63;5170816;28;20277;-72
2023/06/24 07:24:28;;;;;;;6.27;2.90;;;;;;;25.95;75.96;101584.84;5164370;28;20291;-70
2023/06/24 07:26:59;;;;;;;4.67;2.70;;;;;;;26.72;74.92;101586.28;5172374;28;20323;-70
2023/06/24 07:29:29;;;;;;;6.87;2.80;;;;;;;27.03;70.23;101587.00;5172733;28;20283;-67
2023/06/24 07:31:59;;;;;;;4.60;2.50;;;;;;;28.15;66.31;101581.19;5158782;28;20646;-69
2023/06/24 07:34:30;;;;;;;4.25;2.83;;;;;;;27.62;67.45;101571.78;5176223;28;20362;-69
2023/06/24 07:37:00;;;;;;;7.03;2.60;;;;;;;26.29;71.85;101586.38;5167042;28;20037;-69
2023/06/24 07:39:31;;;;;;;4.70;3.00;;;;;;;25.61;74.04;101585.88;5171765;28;20108;-68
2023/06/24 07:42:01;;;;;;;5.30;2.90;;;;;;;25.43;75.07;101581.16;5168226;28;20928;-71
2023/06/24 07:44:31;;;;;;;4.63;2.28;;;;;;;26.23;75.50;101572.63;5173618;28;20037;-69
2023/06/24 07:47:03;;;;;;;6.95;2.58;;;;;;;26.51;71.00;101574.72;5174570;28;20022;-70
2023/06/24 07:49:33;;;;;;;4.57;2.10;;;;;;;26.69;73.13;101575.81;5174730;28;20044;-70
2023/06/24 07:52:04;;;;;;;5.15;2.28;;;;;;;27.55;70.33;101578.72;5174587;28;20472;-70
2023/06/24 07:54:35;;;;;;;3.67;2.10;;;;;;;28.74;66.82;101582.69;5174268;28;20036;-70
2023/06/24 07:57:05;;;;;;;7.38;2.53;;;;;;;27.85;65.92;101592.13;5170788;28;20052;-69
2023/06/24 07:59:36;;;;;;;3.25;2.00;;;;;;;27.09;69.12;101596.38;5172216;28;20694;-70
2023/06/24 08:02:06;;;;;;;4.10;2.05;;;;;;;27.01;67.51;101598.84;5174986;28;20040;-70
2023/06/24 08:04:36;;;;;;;5.38;1.92;;;;;;;27.12;65.43;101601.50;5176746;28;20041;-70
2023/06/24 08:07:07;;;;;;;3.43;2.20;;;;;;;27.36;67.31;101599.31;5174905;28;20126;-70
2023/06/24 08:09:37;;;;;;;3.67;2.07;;;;;;;27.84;69.51;101593.09;5168175;28;20828;-70
2023/06/24 08:12:08;;;;;;;4.25;1.92;;;;;;;28.79;63.93;101587.66;5172279;28;20033;-69
2023/06/24 08:14:39;;;;;;;3.53;1.98;;;;;;;28.69;62.96;101592.22;5168433;28;20503;-70
2023/06/24 08:17:09;;;;;;;5.82;1.88;;;;;;;30.26;59.29;101589.97;5171666;28;20038;-70
2023/06/24 08:19:39;;;;;;;3.73;2.30;;;;;;;29.66;62.30;101588.00;5172410;28;20030;-69
2023/06/24 08:22:09;;;;;;;5.40;1.90;;;;;;;29.05;64.55;101586.03;5171326;28;20816;-69
2023/06/24 08:24:40;;;;;;;4.30;1.93;;;;;;;28.93;64.16;101590.75;5171155;28;20283;-70
2023/06/24 08:27:19;;;;;;;3.50;2.00;;;;;;;29.80;63.62;101578.53;5172432;28;20289;-70
2023/06/24 08:30:27;;;;;;;3.60;1.75;;;;;;;28.64;64.50;101585.56;5151023;28;20030;-68
2023/06/24 08:36:29;;;;;;;3.53;1.60;;;;;;;29.66;61.11;101565.59;5171073;28;20117;-70
2023/06/24 08:38:59;;;;;;;2.88;1.90;;;;;;;29.12;63.56;101570.97;5160965;28;20403;-70
2023/06/24 08:41:29;;;;;;;3.67;1.83;;;;;;;29.34;62.39;101575.97;5171500;28;20042;-70
2023/06/24 08:44:00;;;;;;;2.25;1.50;;;;;;;29.64;64.38;101567.59;5168421;28;20369;-70
2023/06/24 08:46:31;;;;;;;3.08;1.48;;;;;;;29.18;65.34;101573.06;5169548;28;20030;-70
2023/06/24 08:49:22;;;;;;;4.07;1.90;;;;;;;28.04;66.89;101578.69;5168888;28;20077;-70
2023/06/24 08:52:26;;;;;;;2.80;1.60;;;;;;;29.10;60.87;101575.66;5168941;28;20030;-71
2023/06/24 08:54:59;;;;;;;3.90;1.90;;;;;;;29.73;57.72;101567.50;5112056;28;20472;-70
2023/06/24 08:57:29;;;;;;;2.40;1.70;;;;;;;28.87;59.78;101571.63;5170325;28;20022;-70
2023/06/24 09:00:00;;;;;;;2.58;1.65;;;;;;;30.23;59.71;101582.19;5166347;28;22179;-71
2023/06/24 09:02:32;;;;;;;3.75;1.67;;;;;;;30.27;59.52;101580.03;5143119;28;20258;-70
2023/06/24 09:05:03;;;;;;;2.63;1.73;;;;;;;31.18;55.78;101575.78;5160528;28;20075;-70
2023/06/24 09:07:34;;;;;;;3.17;1.83;;;;;;;29.65;58.22;101574.66;5155662;28;20540;-70
2023/06/24 09:10:04;;;;;;;5.18;1.92;;;;;;;29.34;60.88;101576.81;5159161;28;20037;-70
2023/06/24 09:12:35;;;;;;;3.28;1.60;;;;;;;30.23;60.40;101571.41;5156928;28;20022;-71
2023/06/24 09:15:06;;;;;;;4.20;2.00;;;;;;;31.22;54.51;101569.06;5169110;28;20384;-71
2023/06/24 09:17:44;;;;;;;3.83;1.70;;;;;;;31.53;54.10;101565.59;5170751;28;20033;-71
2023/06/24 09:20:14;;;;;;;2.38;1.50;;;;;;;31.30;54.20;101610.47;5169111;28;20558;-69
2023/06/24 09:22:44;;;;;;;3.78;1.80;;;;;;;30.86;58.45;101559.38;5168559;28;20026;-70
2023/06/24 09:25:18;;;;;;;3.27;1.60;;;;;;;32.56;55.74;101561.31;5169989;28;20396;-70
2023/06/24 09:27:52;;;;;;;2.45;1.80;;;;;;;30.26;59.23;101576.47;5167686;28;20351;-68
2023/06/24 09:30:23;;;;;;;3.47;1.67;;;;;;;31.73;56.15;101564.31;5168083;28;20033;-71
2023/06/24 09:32:54;;;;;;;2.95;1.65;;;;;;;28.75;58.28;101570.94;5168919;28;20225;-71
2023/06/24 09:35:25;;;;;;;5.70;1.40;;;;;;;31.13;56.10;101560.06;5169088;28;20045;-70
2023/06/24 09:37:59;;;;;;;3.13;1.50;;;;;;;30.75;55.97;101569.63;5149678;28;20060;-70
2023/06/24 09:40:29;;;;;;;3.55;1.60;;;;;;;32.55;54.32;101567.75;5164783;28;20319;-70
2023/06/24 09:43:00;;;;;;;3.92;1.70;;;;;;;31.75;55.79;101558.75;5168873;28;20244;-71
2023/06/24 09:45:31;;;;;;;2.35;1.30;;;;;;;32.49;51.43;101571.16;5167714;28;20044;-71
2023/06/24 09:48:02;;;;;;;5.70;1.55;;;;;;;31.29;59.20;101567.38;5169357;28;20033;-70
2023/06/24 09:50:33;;;;;;;2.35;1.40;;;;;;;31.48;54.96;101580.63;5162606;28;20035;-70
2023/06/24 09:53:04;;;;;;;2.53;1.63;;;;;;;32.34;53.49;101581.00;5170047;28;20052;-70
2023/06/24 09:55:36;;;;;;;3.08;1.67;;;;;;;31.82;54.33;101587.69;5166849;28;20038;-71
2023/06/24 09:58:06;;;;;;;2.20;1.45;;;;;;;30.60;53.89;101573.91;5168719;28;20064;-71
2023/06/24 10:00:37;;;;;;;5.60;1.52;;;;;;;31.08;56.57;101575.91;5142641;28;20034;-70
2023/06/24 10:03:08;;;;;;;2.65;1.38;;;;;;;31.58;56.68;101576.78;5159025;28;20038;-70
2023/06/24 10:05:38;;;;;;;6.15;2.60;;;;;;;31.14;58.16;101577.97;5164996;28;20050;-70
2023/06/24 10:08:10;;;;;;;2.38;1.60;;;;;;;30.55;56.16;101568.94;5169951;28;20037;-70
2023/06/24 10:10:40;;;;;;;3.83;1.30;;;;;;;29.81;58.71;101569.44;5166892;28;20412;-70
2023/06/24 10:13:10;;;;;;;3.97;1.63;;;;;;;29.62;58.86;101567.75;5169863;28;20038;-69
2023/06/24 10:15:41;;;;;;;4.78;1.77;;;;;;;30.14;55.03;101555.28;5168360;28;20555;-71
2023/06/24 10:18:34;;;;;;;2.17;1.48;;;;;;;30.00;53.46;101563.91;5167742;28;20093;-69
2023/06/24 10:21:06;;;;;;;3.30;1.73;;;;;;;28.86;58.28;101560.00;5165184;28;20053;-72
2023/06/24 10:23:49;;;;;;;3.25;1.67;;;;;;;28.78;61.72;101564.41;5152471;28;20611;-72
2023/06/24 10:26:30;;;;;;;4.68;1.70;;;;;;;28.57;59.71;101555.69;5152584;28;20046;-71
2023/06/24 10:29:06;;;;;;;4.07;1.90;;;;;;;27.92;60.20;101560.97;5153931;28;20026;-71
2023/06/24 10:31:39;;;;;;;3.28;1.70;;;;;;;28.45;61.25;101548.78;5151311;28;20620;-72
2023/06/24 10:34:19;;;;;;;3.13;1.83;;;;;;;28.12;61.90;101551.91;5148703;28;20038;-72
2023/06/24 10:36:58;;;;;;;4.72;2.05;;;;;;;27.23;61.94;101545.84;5166977;28;20041;-71
2023/06/24 10:39:35;;;;;;;3.30;1.80;;;;;;;27.27;62.63;101535.69;5147545;28;20484;-70
2023/06/24 10:42:30;;;;;;;4.50;2.08;;;;;;;27.08;65.42;101541.81;5161778;28;20045;-71
2023/06/24 10:45:11;;;;;;;4.22;2.05;;;;;;;27.27;66.27;101539.19;5159066;28;20025;-72
2023/06/24 10:47:43;;;;;;;3.08;2.00;;;;;;;27.57;64.35;101506.88;5162378;28;20034;-72
2023/06/24 10:50:16;;;;;;;4.40;2.22;;;;;;;27.28;63.04;101570.44;5165683;28;20030;-70
2023/06/24 10:52:48;;;;;;;3.92;2.30;;;;;;;27.41;63.14;101516.50;5171184;28;20042;-72
2023/06/24 10:55:19;;;;;;;3.85;2.05;;;;;;;27.75;65.74;101507.09;5169502;28;20305;-70
2023/06/24 10:57:49;;;;;;;5.60;2.00;;;;;;;27.39;65.42;101534.56;5171309;28;20399;-70
2023/06/24 11:00:22;;;;;;;4.20;2.25;;;;;;;27.44;67.59;101521.59;5169036;28;20042;-71
2023/06/24 11:02:52;;;;;;;4.85;2.10;;;;;;;27.08;64.80;101523.00;5177781;28;20042;-71
2023/06/24 11:05:22;;;;;;;3.13;2.00;;;;;;;27.37;65.61;101525.78;5179110;28;20103;-70
2023/06/24 11:07:53;;;;;;;4.37;2.27;;;;;;;27.19;64.33;101517.56;5172381;28;20174;-72
2023/06/24 11:10:24;;;;;;;4.87;2.10;;;;;;;27.12;63.12;101519.09;5157110;28;20308;-72
2023/06/24 11:12:57;;;;;;;3.60;2.20;;;;;;;27.16;63.29;101523.22;5172269;28;20315;-72
2023/06/24 11:15:27;;;;;;;3.92;2.08;;;;;;;26.74;65.57;101520.78;5154928;28;20405;-70
2023/06/24 11:17:57;;;;;;;4.90;2.00;;;;;;;26.59;66.59;101516.75;5177450;28;20048;-72
2023/06/24 11:20:28;;;;;;;4.47;1.90;;;;;;;27.14;67.99;101513.59;5165503;28;20786;-72
2023/06/24 11:22:58;;;;;;;5.25;2.10;;;;;;;27.33;67.50;101511.81;5150341;28;20293;-72
2023/06/24 11:25:28;;;;;;;6.57;2.07;;;;;;;27.08;64.89;101514.94;5172061;28;20026;-71
2023/06/24 11:27:59;;;;;;;4.05;2.10;;;;;;;27.20;64.82;101510.34;5156691;28;20312;-72
2023/06/24 11:30:34;;;;;;;3.60;2.25;;;;;;;26.92;62.68;101497.69;5176296;28;20088;-72
2023/06/24 11:33:04;;;;;;;3.65;2.15;;;;;;;26.73;63.46;101502.09;5171577;28;20022;-72
2023/06/24 11:35:36;;;;;;;4.37;2.30;;;;;;;26.74;64.09;101502.81;5161725;28;20030;-72
2023/06/24 11:38:08;;;;;;;2.67;1.98;;;;;;;26.95;67.90;101492.88;5166370;28;20284;-71
2023/06/24 11:40:38;;;;;;;4.50;2.13;;;;;;;26.94;66.87;101496.53;5173458;28;20411;-72
2023/06/24 11:43:09;;;;;;;6.63;1.97;;;;;;;27.18;68.32;101499.78;5171412;28;20044;-72
2023/06/24 11:45:39;;;;;;;5.17;1.87;;;;;;;27.20;68.22;101497.78;5169306;28;20715;-72
2023/06/24 11:48:09;;;;;;;2.95;2.05;;;;;;;27.37;65.60;101494.44;5170421;28;20631;-72